Time;durP1;ratioP1;P1;durP2;ratioP2;P2;SDS_P1;SDS_P2;PMS_P1;PMS_P2;Temp;Humidity;BMP_temperature;BMP_pressure;BME280_temperature;BME280_humidity;BME280_pressure;Samples;Min_cycle;Max_cycle;Signal;HPM_P1;HPM_P2
2023/10/09 00:01:09;;;;;;;0.32;0.32;;;;;;;;;;6123575;23;20483;-79
2023/10/09 00:03:37;;;;;;;0.10;0.10;;;;;;;;;;6123935;23;20030;-79
2023/10/09 00:06:05;;;;;;;0.10;0.10;;;;;;;;;;6124657;23;20038;-79
2023/10/09 00:08:32;;;;;;;0.10;0.10;;;;;;;;;;6124217;23;20102;-78
2023/10/09 00:11:13;;;;;;;0.40;0.40;;;;;;;;;;6121743;23;20026;-79
2023/10/09 00:13:49;;;;;;;0.32;0.30;;;;;;;;;;6124459;23;20084;-79
2023/10/09 00:16:17;;;;;;;1.05;0.55;;;;;;;;;;6124121;23;20055;-79
2023/10/09 00:18:46;;;;;;;0.55;0.30;;;;;;;;;;6123832;23;20491;-77
2023/10/09 00:21:20;;;;;;;0.10;0.10;;;;;;;;;;6123336;23;20083;-78
2023/10/09 00:23:59;;;;;;;0.30;0.30;;;;;;;;;;6122794;23;20030;-79
2023/10/09 00:26:26;;;;;;;1.08;0.52;;;;;;;;;;6124590;23;20460;-79
2023/10/09 00:28:52;;;;;;;0.15;0.15;;;;;;;;;;6120725;23;20026;-79
2023/10/09 00:31:33;;;;;;;0.10;0.10;;;;;;;;;;6123072;23;20086;-78
2023/10/09 00:34:15;;;;;;;0.20;0.20;;;;;;;;;;6124159;23;20083;-78
2023/10/09 00:36:50;;;;;;;0.28;0.25;;;;;;;;;;6123077;23;20033;-79
2023/10/09 00:39:55;;;;;;;0.10;0.10;;;;;;;;;;6121663;23;20538;-76
2023/10/09 00:42:15;;;;;;;0.47;0.35;;;;;;;;;;6120252;23;20511;-76
2023/10/09 00:44:42;;;;;;;;;;;;;;;;;;6123546;23;20033;-75
2023/10/09 00:47:26;;;;;;;0.10;0.10;;;;;;;;;;6121165;23;48422;-76
2023/10/09 00:50:09;;;;;;;0.20;0.20;;;;;;;;;;6124550;23;20118;-75
2023/10/09 00:52:39;;;;;;;0.10;0.10;;;;;;;;;;6122952;23;20084;-75
2023/10/09 00:55:37;;;;;;;0.10;0.10;;;;;;;;;;6122862;23;20073;-76
2023/10/09 00:58:12;;;;;;;0.10;0.10;;;;;;;;;;6123752;23;20481;-76
2023/10/09 01:08:30;;;;;;;0.65;0.50;;;;;;;;;;6122149;23;20042;-76
2023/10/09 01:10:58;;;;;;;;;;;;;;;;;;6123568;23;20114;-76
2023/10/09 01:16:31;;;;;;;0.10;0.10;;;;;;;;;;6090982;23;20107;-75
2023/10/09 01:18:57;;;;;;;0.55;0.43;;;;;;;;;;6118274;23;20054;-76
2023/10/09 01:21:25;;;;;;;0.10;0.10;;;;;;;;;;6122319;23;20041;-75
2023/10/09 01:24:07;;;;;;;0.10;0.10;;;;;;;;;;6121433;23;20034;-78
2023/10/09 01:26:44;;;;;;;0.10;0.10;;;;;;;;;;6124228;23;20505;-78
2023/10/09 01:29:16;;;;;;;0.32;0.28;;;;;;;;;;6124060;23;20035;-78
2023/10/09 01:31:51;;;;;;;0.40;0.38;;;;;;;;;;6124429;23;20030;-77
2023/10/09 01:34:24;;;;;;;0.25;0.25;;;;;;;;;;6123128;23;20427;-79
2023/10/09 01:36:54;;;;;;;1.17;0.85;;;;;;;;;;6122339;23;20605;-78
2023/10/09 01:39:31;;;;;;;0.10;0.10;;;;;;;;;;6098479;23;20034;-79
2023/10/09 01:41:58;;;;;;;0.10;0.10;;;;;;;;;;6124614;23;20037;-78
2023/10/09 01:49:37;;;;;;;0.10;0.10;;;;;;;;;;6087837;23;20037;-79
2023/10/09 01:52:09;;;;;;;0.10;0.10;;;;;;;;;;6093761;23;20030;-79
2023/10/09 01:54:40;;;;;;;0.10;0.10;;;;;;;;;;6116044;23;20061;-79
2023/10/09 01:57:13;;;;;;;0.10;0.10;;;;;;;;;;6092943;23;20034;-78
2023/10/09 01:59:55;;;;;;;0.10;0.10;;;;;;;;;;6095163;23;20078;-78
2023/10/09 02:02:25;;;;;;;1.15;0.73;;;;;;;;;;6118168;23;20035;-78
2023/10/09 02:04:54;;;;;;;0.10;0.10;;;;;;;;;;6094370;23;20037;-78
2023/10/09 02:07:28;;;;;;;0.10;0.10;;;;;;;;;;6095411;23;20105;-79
2023/10/09 02:09:55;;;;;;;0.20;0.20;;;;;;;;;;6095686;23;20038;-79
2023/10/09 02:12:23;;;;;;;0.10;0.10;;;;;;;;;;6096083;23;20475;-79
2023/10/09 02:14:53;;;;;;;1.13;0.88;;;;;;;;;;6094523;23;20630;-78
2023/10/09 02:17:20;;;;;;;0.10;0.10;;;;;;;;;;6094882;23;20031;-78
2023/10/09 02:19:49;;;;;;;0.10;0.10;;;;;;;;;;6095592;23;20459;-78
2023/10/09 02:22:16;;;;;;;1.55;0.90;;;;;;;;;;6094835;23;20081;-78
2023/10/09 02:24:57;;;;;;;0.10;0.10;;;;;;;;;;6095196;23;20019;-78
2023/10/09 02:30:17;;;;;;;0.10;0.10;;;;;;;;;;6092232;23;20484;-80
2023/10/09 02:32:44;;;;;;;0.20;0.20;;;;;;;;;;6092653;23;20031;-78
2023/10/09 02:38:07;;;;;;;0.85;0.68;;;;;;;;;;6092973;23;20099;-78
2023/10/09 02:41:17;;;;;;;0.10;0.10;;;;;;;;;;6093304;23;20086;-78
2023/10/09 02:43:20;;;;;;;0.35;0.30;;;;;;;;;;6094279;23;20090;-79
2023/10/09 02:45:50;;;;;;;0.30;0.30;;;;;;;;;;6094734;23;20031;-79
2023/10/09 02:48:19;;;;;;;0.10;0.10;;;;;;;;;;6106491;23;20030;-79
2023/10/09 02:50:46;;;;;;;0.65;0.65;;;;;;;;;;6123453;23;20116;-80
2023/10/09 02:53:18;;;;;;;0.10;0.10;;;;;;;;;;6124565;23;20548;-78
2023/10/09 02:56:11;;;;;;;0.20;0.20;;;;;;;;;;6124334;23;20031;-79
2023/10/09 02:58:36;;;;;;;0.70;0.55;;;;;;;;;;6124218;23;20094;-79
2023/10/09 03:01:03;;;;;;;0.20;0.20;;;;;;;;;;6100537;23;20098;-79
2023/10/09 03:03:29;;;;;;;0.52;0.52;;;;;;;;;;6125894;23;20026;-79
2023/10/09 03:05:56;;;;;;;0.28;0.28;;;;;;;;;;6124552;23;20030;-79
2023/10/09 03:08:22;;;;;;;0.35;0.35;;;;;;;;;;6124065;23;20032;-78
2023/10/09 03:10:49;;;;;;;0.10;0.10;;;;;;;;;;6124362;23;20034;-80
2023/10/09 03:13:19;;;;;;;0.28;0.20;;;;;;;;;;6125639;23;20057;-79
2023/10/09 03:15:48;;;;;;;0.35;0.28;;;;;;;;;;6124927;23;20048;-80
2023/10/09 03:18:14;;;;;;;0.10;0.10;;;;;;;;;;6097913;23;20037;-79
2023/10/09 03:20:41;;;;;;;0.10;0.10;;;;;;;;;;6125616;23;20030;-78
2023/10/09 03:23:09;;;;;;;0.10;0.10;;;;;;;;;;6124217;23;20078;-78
2023/10/09 03:25:37;;;;;;;0.20;0.20;;;;;;;;;;6124201;23;20037;-78
2023/10/09 03:28:04;;;;;;;0.65;0.30;;;;;;;;;;6123951;23;20066;-78
2023/10/09 03:30:32;;;;;;;0.10;0.10;;;;;;;;;;6123814;23;20502;-79
2023/10/09 03:33:00;;;;;;;0.10;0.10;;;;;;;;;;6125490;23;20026;-79
2023/10/09 03:35:27;;;;;;;0.20;0.20;;;;;;;;;;6125370;23;20445;-79
2023/10/09 03:38:00;;;;;;;0.35;0.35;;;;;;;;;;6123723;23;20061;-79
2023/10/09 03:40:27;;;;;;;0.20;0.20;;;;;;;;;;6124521;23;20033;-79
2023/10/09 03:42:54;;;;;;;0.10;0.10;;;;;;;;;;6098501;23;20026;-78
2023/10/09 03:45:27;;;;;;;0.10;0.10;;;;;;;;;;6124677;23;20030;-79
2023/10/09 03:48:11;;;;;;;0.10;0.10;;;;;;;;;;6125145;23;20073;-79
2023/10/09 03:50:38;;;;;;;0.10;0.10;;;;;;;;;;6125978;23;20030;-78
2023/10/09 03:53:07;;;;;;;0.15;0.15;;;;;;;;;;6124703;23;20105;-78
2023/10/09 03:55:39;;;;;;;0.10;0.10;;;;;;;;;;6100669;23;20053;-77
2023/10/09 03:58:06;;;;;;;0.10;0.10;;;;;;;;;;6123613;23;20073;-78
2023/10/09 04:00:44;;;;;;;0.30;0.30;;;;;;;;;;6122091;23;20031;-77
2023/10/09 04:03:13;;;;;;;0.20;0.20;;;;;;;;;;6097399;23;20026;-77
2023/10/09 04:05:43;;;;;;;0.30;0.30;;;;;;;;;;6123954;23;20105;-77
2023/10/09 04:08:28;;;;;;;0.10;0.10;;;;;;;;;;6122638;23;20042;-77
2023/10/09 04:11:01;;;;;;;0.43;0.43;;;;;;;;;;6098782;23;20027;-77
2023/10/09 04:13:33;;;;;;;0.10;0.10;;;;;;;;;;6122872;23;20499;-77
2023/10/09 04:16:09;;;;;;;0.10;0.10;;;;;;;;;;6124918;23;20031;-77
2023/10/09 04:18:38;;;;;;;0.10;0.10;;;;;;;;;;6123345;23;20495;-77
2023/10/09 04:21:33;;;;;;;0.10;0.10;;;;;;;;;;6122019;23;20026;-77
2023/10/09 04:26:37;;;;;;;0.10;0.10;;;;;;;;;;6121850;23;20041;-78
2023/10/09 04:29:03;;;;;;;0.10;0.10;;;;;;;;;;6119801;23;20030;-77
2023/10/09 04:31:37;;;;;;;0.20;0.20;;;;;;;;;;6123126;23;20482;-77
2023/10/09 04:34:23;;;;;;;1.55;0.50;;;;;;;;;;6098096;23;20554;-78
2023/10/09 04:36:51;;;;;;;0.20;0.20;;;;;;;;;;6122354;23;20197;-77
2023/10/09 04:42:19;;;;;;;0.10;0.10;;;;;;;;;;6123001;23;20026;-77
2023/10/09 04:47:38;;;;;;;0.10;0.10;;;;;;;;;;6121844;23;20082;-78
2023/10/09 04:50:11;;;;;;;0.10;0.10;;;;;;;;;;6123329;23;20490;-77
2023/10/09 04:57:37;;;;;;;0.10;0.10;;;;;;;;;;6121994;23;20027;-77
2023/10/09 05:00:06;;;;;;;0.10;0.10;;;;;;;;;;6122835;23;20030;-78
2023/10/09 05:02:37;;;;;;;0.10;0.10;;;;;;;;;;6123683;23;20026;-78
2023/10/09 05:05:32;;;;;;;0.20;0.20;;;;;;;;;;6123654;23;20078;-77
2023/10/09 05:08:18;;;;;;;0.10;0.10;;;;;;;;;;6120132;23;20026;-76
2023/10/09 05:11:05;;;;;;;0.20;0.20;;;;;;;;;;6122506;23;20030;-76
2023/10/09 05:18:45;;;;;;;0.10;0.10;;;;;;;;;;6092292;23;20066;-76
2023/10/09 05:35:07;;;;;;;0.10;0.10;;;;;;;;;;6092951;23;20031;-76
2023/10/09 05:37:33;;;;;;;0.10;0.10;;;;;;;;;;6092569;23;20034;-78
2023/10/09 05:42:44;;;;;;;0.45;0.45;;;;;;;;;;6094120;23;20067;-76
2023/10/09 05:47:53;;;;;;;0.10;0.10;;;;;;;;;;6091351;23;20091;-78
2023/10/09 05:55:48;;;;;;;0.10;0.10;;;;;;;;;;6094460;23;20030;-76
2023/10/09 06:06:02;;;;;;;0.20;0.20;;;;;;;;;;6093866;23;20073;-76
2023/10/09 06:09:11;;;;;;;;;;;;;;;;;;6068971;23;20038;-78
2023/10/09 06:19:12;;;;;;;0.10;0.10;;;;;;;;;;6092469;23;20065;-77
2023/10/09 06:22:09;;;;;;;0.20;0.20;;;;;;;;;;6093494;23;20027;-78
2023/10/09 06:24:33;;;;;;;2.65;0.82;;;;;;;;;;6091822;23;20030;-76
2023/10/09 06:29:36;;;;;;;0.30;0.30;;;;;;;;;;6094910;23;20539;-76
2023/10/09 06:34:46;;;;;;;0.20;0.20;;;;;;;;;;6088283;23;20027;-76
2023/10/09 06:45:16;;;;;;;0.10;0.10;;;;;;;;;;6091303;23;20050;-78
2023/10/09 06:55:48;;;;;;;0.10;0.10;;;;;;;;;;6091287;23;20058;-77
2023/10/09 06:58:27;;;;;;;0.20;0.20;;;;;;;;;;6066282;23;20027;-76
2023/10/09 07:03:59;;;;;;;0.20;0.20;;;;;;;;;;6091000;23;20430;-78
2023/10/09 07:14:08;;;;;;;0.10;0.10;;;;;;;;;;6092700;23;20110;-76
2023/10/09 07:16:57;;;;;;;0.60;0.28;;;;;;;;;;6093698;23;20090;-76
2023/10/09 07:22:23;;;;;;;0.20;0.20;;;;;;;;;;6092951;23;20077;-76
2023/10/09 07:24:56;;;;;;;0.20;0.20;;;;;;;;;;6092931;23;20110;-76
2023/10/09 07:27:48;;;;;;;0.20;0.20;;;;;;;;;;6092760;23;20035;-76
2023/10/09 07:38:19;;;;;;;0.28;0.28;;;;;;;;;;6091794;23;20099;-76
2023/10/09 07:40:55;;;;;;;2.38;1.02;;;;;;;;;;6092458;23;20031;-76
2023/10/09 07:43:35;;;;;;;0.15;0.15;;;;;;;;;;6092565;23;20079;-76
2023/10/09 07:48:38;;;;;;;0.35;0.25;;;;;;;;;;6090697;23;20027;-76
2023/10/09 07:51:12;;;;;;;0.10;0.10;;;;;;;;;;6091340;23;20316;-76
2023/10/09 07:53:44;;;;;;;0.10;0.10;;;;;;;;;;6090422;23;20031;-76
2023/10/09 07:56:13;;;;;;;0.20;0.20;;;;;;;;;;6066752;23;20033;-77
2023/10/09 07:58:46;;;;;;;0.10;0.10;;;;;;;;;;6064162;23;20491;-76
2023/10/09 08:01:16;;;;;;;0.47;0.47;;;;;;;;;;6090413;23;20063;-75
2023/10/09 08:03:46;;;;;;;0.38;0.28;;;;;;;;;;6092015;23;20057;-76
2023/10/09 08:12:13;;;;;;;0.20;0.20;;;;;;;;;;6092191;23;20087;-75
2023/10/09 08:14:45;;;;;;;0.60;0.38;;;;;;;;;;6090618;23;20023;-76
2023/10/09 08:17:21;;;;;;;0.10;0.10;;;;;;;;;;6094116;23;20026;-76
2023/10/09 08:19:55;;;;;;;0.30;0.30;;;;;;;;;;6092311;23;20448;-76
2023/10/09 08:24:58;;;;;;;0.15;0.15;;;;;;;;;;6091710;23;20494;-76
2023/10/09 08:32:40;;;;;;;0.20;0.20;;;;;;;;;;6090313;23;20031;-76
2023/10/09 08:35:29;;;;;;;0.30;0.30;;;;;;;;;;6064671;23;20037;-76
2023/10/09 08:38:03;;;;;;;0.10;0.10;;;;;;;;;;6093441;23;20054;-76
2023/10/09 08:40:32;;;;;;;1.20;0.40;;;;;;;;;;6089913;23;20038;-77
2023/10/09 08:43:08;;;;;;;0.95;0.95;;;;;;;;;;6063467;23;20041;-76
2023/10/09 08:45:39;;;;;;;0.10;0.10;;;;;;;;;;6092149;23;20095;-75
2023/10/09 08:48:15;;;;;;;0.10;0.10;;;;;;;;;;6090387;23;20058;-76
2023/10/09 08:50:43;;;;;;;1.30;1.05;;;;;;;;;;6091078;23;20031;-76
2023/10/09 08:53:10;;;;;;;0.10;0.10;;;;;;;;;;6091076;23;20031;-76
2023/10/09 08:55:38;;;;;;;0.30;0.30;;;;;;;;;;6091895;23;20471;-75
2023/10/09 08:58:26;;;;;;;0.32;0.32;;;;;;;;;;6092010;23;20031;-76
2023/10/09 09:00:55;;;;;;;0.10;0.10;;;;;;;;;;6091276;23;20038;-76
2023/10/09 09:03:24;;;;;;;0.30;0.30;;;;;;;;;;6090777;23;20031;-75
2023/10/09 09:05:57;;;;;;;0.45;0.25;;;;;;;;;;6091174;23;20674;-75
2023/10/09 09:08:25;;;;;;;0.20;0.20;;;;;;;;;;6091149;23;20078;-75
2023/10/09 09:11:22;;;;;;;0.10;0.10;;;;;;;;;;6090384;23;20065;-76
2023/10/09 09:14:02;;;;;;;0.38;0.20;;;;;;;;;;6091059;23;20086;-76
2023/10/09 09:16:44;;;;;;;0.52;0.52;;;;;;;;;;5164561;27;20121;-77
2023/10/09 09:21:41;;;;;;;0.20;0.20;;;;;;;;;;5144976;27;20095;-78
2023/10/09 09:24:16;;;;;;;1.17;1.13;;;;;;;;;;5145319;27;20066;-77
2023/10/09 09:26:46;;;;;;;0.25;0.20;;;;;;;;;;5136765;27;20077;-78
2023/10/09 09:29:13;;;;;;;0.10;0.10;;;;;;;;;;5134371;27;20047;-76
2023/10/09 09:32:15;;;;;;;0.20;0.20;;;;;;;;;;5139565;27;20055;-77
2023/10/09 09:34:55;;;;;;;0.20;0.20;;;;;;;;;;5142602;27;20059;-77
2023/10/09 09:37:28;;;;;;;0.13;0.13;;;;;;;;;;5137828;27;20059;-77
2023/10/09 09:40:00;;;;;;;1.00;0.30;;;;;;;;;;5138766;27;20167;-76
2023/10/09 09:42:32;;;;;;;0.30;0.20;;;;;;;;;;5136477;27;20057;-77
2023/10/09 09:45:00;;;;;;;0.30;0.30;;;;;;;;;;5144244;27;20048;-76
2023/10/09 09:47:26;;;;;;;0.10;0.10;;;;;;;;;;5131994;27;20051;-79
2023/10/09 09:50:00;;;;;;;0.28;0.22;;;;;;;;;;5143792;27;20136;-75
2023/10/09 09:52:37;;;;;;;0.30;0.28;;;;;;;;;;5144815;27;20056;-75
2023/10/09 09:55:14;;;;;;;0.28;0.20;;;;;;;;;;5137295;27;20056;-79
2023/10/09 09:57:40;;;;;;;0.15;0.15;;;;;;;;;;5134625;27;20051;-74
2023/10/09 10:00:26;;;;;;;0.38;0.38;;;;;;;;;;5141768;27;20556;-78
2023/10/09 10:02:56;;;;;;;0.35;0.32;;;;;;;;;;5132656;27;20051;-76
2023/10/09 10:05:24;;;;;;;0.35;0.35;;;;;;;;;;5138396;27;20051;-76
2023/10/09 10:07:51;;;;;;;0.40;0.40;;;;;;;;;;5139636;27;20043;-75
2023/10/09 10:10:47;;;;;;;0.20;0.20;;;;;;;;;;5141145;27;20063;-75
2023/10/09 10:13:27;;;;;;;0.40;0.40;;;;;;;;;;5132048;27;20052;-75
2023/10/09 10:16:38;;;;;;;0.35;0.32;;;;;;;;;;5135727;27;20134;-75
2023/10/09 10:19:06;;;;;;;0.55;0.55;;;;;;;;;;5132085;27;20138;-75
2023/10/09 10:21:39;;;;;;;0.40;0.40;;;;;;;;;;5142027;27;20163;-76
2023/10/09 10:24:24;;;;;;;0.20;0.20;;;;;;;;;;5139130;27;20046;-75
2023/10/09 10:30:25;;;;;;;0.32;0.30;;;;;;;;;;5119910;27;20598;-75
2023/10/09 10:32:52;;;;;;;0.50;0.50;;;;;;;;;;5112392;27;20059;-75
2023/10/09 10:35:32;;;;;;;0.50;0.50;;;;;;;;;;5127371;27;20052;-75
2023/10/09 10:38:11;;;;;;;0.25;0.25;;;;;;;;;;5122817;27;20054;-75
2023/10/09 10:40:38;;;;;;;0.17;0.17;;;;;;;;;;5120621;27;20055;-76
2023/10/09 10:43:31;;;;;;;0.30;0.30;;;;;;;;;;5120852;27;20106;-76
2023/10/09 10:46:04;;;;;;;0.22;0.20;;;;;;;;;;5118833;27;20059;-76
2023/10/09 10:48:39;;;;;;;1.35;0.57;;;;;;;;;;5124132;27;20052;-75
2023/10/09 10:51:06;;;;;;;0.70;0.38;;;;;;;;;;5126439;27;20048;-75
2023/10/09 10:53:47;;;;;;;0.28;0.25;;;;;;;;;;5124557;27;20649;-75
2023/10/09 10:59:11;;;;;;;0.25;0.25;;;;;;;;;;5122133;27;20044;-75
2023/10/09 11:01:53;;;;;;;0.50;0.30;;;;;;;;;;5122560;27;20142;-76
2023/10/09 11:10:27;;;;;;;1.00;0.95;;;;;;;;;;5124124;27;20109;-77
2023/10/09 11:16:15;;;;;;;0.20;0.20;;;;;;;;;;5120621;27;20051;-76
2023/10/09 11:18:26;;;;;;;0.10;0.10;;;;;;;;;;5116843;27;20811;-76
2023/10/09 11:28:57;;;;;;;1.13;0.40;;;;;;;;;;5126308;27;20867;-75
2023/10/09 11:31:24;;;;;;;0.38;0.38;;;;;;;;;;5123077;27;20067;-74
2023/10/09 11:33:53;;;;;;;0.10;0.10;;;;;;;;;;5126009;27;20561;-77
2023/10/09 11:36:29;;;;;;;1.63;0.40;;;;;;;;;;5127485;27;20051;-79
2023/10/09 11:39:13;;;;;;;0.30;0.30;;;;;;;;;;5122251;27;20052;-75
2023/10/09 11:41:44;;;;;;;0.28;0.28;;;;;;;;;;5125466;27;20051;-75
2023/10/09 11:44:33;;;;;;;0.15;0.15;;;;;;;;;;5116815;27;20062;-77
2023/10/09 11:52:35;;;;;;;0.30;0.30;;;;;;;;;;5127774;27;20051;-75
2023/10/09 11:55:04;;;;;;;0.35;0.30;;;;;;;;;;5130802;27;20074;-75
2023/10/09 11:57:31;;;;;;;0.25;0.25;;;;;;;;;;5127542;27;20055;-75
2023/10/09 11:59:59;;;;;;;0.20;0.20;;;;;;;;;;5126705;27;20510;-76
2023/10/09 12:02:26;;;;;;;0.52;0.30;;;;;;;;;;5128737;27;20048;-75
2023/10/09 12:04:55;;;;;;;0.10;0.10;;;;;;;;;;5121194;27;20051;-75
2023/10/09 12:07:23;;;;;;;0.35;0.35;;;;;;;;;;5130188;27;20513;-76
2023/10/09 12:09:56;;;;;;;1.05;0.52;;;;;;;;;;5127477;27;20520;-75
2023/10/09 12:12:26;;;;;;;0.85;0.82;;;;;;;;;;5129000;27;20048;-78
2023/10/09 12:14:53;;;;;;;0.20;0.20;;;;;;;;;;5119407;27;20056;-78
2023/10/09 12:17:19;;;;;;;1.58;0.75;;;;;;;;;;5129713;27;20047;-75
2023/10/09 12:19:47;;;;;;;0.55;0.55;;;;;;;;;;5128220;27;20051;-75
2023/10/09 12:22:16;;;;;;;4.30;0.40;;;;;;;;;;5122317;27;20138;-75
2023/10/09 12:24:43;;;;;;;0.10;0.10;;;;;;;;;;5129918;27;20158;-77
2023/10/09 12:27:11;;;;;;;0.22;0.22;;;;;;;;;;5130174;27;20055;-75
2023/10/09 12:29:38;;;;;;;0.50;0.30;;;;;;;;;;5127206;27;20135;-75
2023/10/09 12:32:10;;;;;;;0.82;0.68;;;;;;;;;;5128233;27;20055;-75
2023/10/09 12:34:38;;;;;;;0.10;0.10;;;;;;;;;;5129551;27;20155;-74
2023/10/09 12:37:06;;;;;;;0.95;0.95;;;;;;;;;;5123872;27;20098;-75
2023/10/09 12:39:40;;;;;;;0.30;0.30;;;;;;;;;;5127681;27;20062;-75
2023/10/09 12:42:06;;;;;;;0.52;0.38;;;;;;;;;;5129484;27;20055;-75
2023/10/09 12:44:42;;;;;;;0.40;0.40;;;;;;;;;;5129096;27;20597;-74
2023/10/09 12:47:11;;;;;;;0.30;0.30;;;;;;;;;;5129846;27;20637;-76
2023/10/09 12:49:43;;;;;;;0.47;0.40;;;;;;;;;;5126492;27;20136;-75
2023/10/09 12:52:16;;;;;;;0.32;0.32;;;;;;;;;;5129694;27;20055;-77
2023/10/09 12:54:46;;;;;;;0.38;0.30;;;;;;;;;;5126047;27;20055;-76
2023/10/09 12:57:15;;;;;;;0.20;0.20;;;;;;;;;;5127907;27;20516;-78
2023/10/09 12:59:45;;;;;;;0.20;0.20;;;;;;;;;;5125655;27;20055;-82
2023/10/09 13:02:13;;;;;;;0.63;0.37;;;;;;;;;;5119349;27;20051;-74
2023/10/09 13:04:42;;;;;;;0.32;0.25;;;;;;;;;;5119517;27;20372;-77
2023/10/09 13:07:09;;;;;;;0.27;0.23;;;;;;;;;;5124237;27;20685;-76
2023/10/09 13:09:42;;;;;;;0.20;0.20;;;;;;;;;;5125318;27;20117;-74
2023/10/09 13:12:14;;;;;;;0.40;0.32;;;;;;;;;;5118089;27;20047;-74
2023/10/09 13:14:41;;;;;;;1.00;0.50;;;;;;;;;;5119263;27;20105;-74
2023/10/09 13:17:09;;;;;;;0.43;0.43;;;;;;;;;;5127576;27;20051;-77
2023/10/09 13:19:36;;;;;;;0.55;0.32;;;;;;;;;;5128682;27;20052;-75
2023/10/09 13:22:03;;;;;;;0.22;0.22;;;;;;;;;;5126428;27;20062;-75
2023/10/09 13:24:30;;;;;;;0.32;0.30;;;;;;;;;;5125509;27;20520;-77
2023/10/09 13:27:04;;;;;;;0.20;0.20;;;;;;;;;;5125126;27;20487;-75
2023/10/09 13:29:33;;;;;;;0.20;0.20;;;;;;;;;;5122103;27;20051;-78
2023/10/09 13:32:02;;;;;;;0.50;0.50;;;;;;;;;;5120997;27;20052;-76
2023/10/09 13:34:29;;;;;;;0.20;0.20;;;;;;;;;;5127109;27;20047;-75
2023/10/09 13:36:59;;;;;;;1.08;0.80;;;;;;;;;;5124417;27;20091;-76
2023/10/09 13:39:26;;;;;;;0.20;0.20;;;;;;;;;;5124844;27;20063;-75
2023/10/09 13:41:57;;;;;;;0.95;0.30;;;;;;;;;;5129020;27;20100;-76
2023/10/09 13:44:26;;;;;;;0.10;0.10;;;;;;;;;;5125316;27;20232;-78
2023/10/09 13:47:19;;;;;;;0.20;0.20;;;;;;;;;;5119148;27;20880;-76
2023/10/09 13:49:50;;;;;;;0.20;0.20;;;;;;;;;;5122041;27;20063;-76
2023/10/09 13:52:21;;;;;;;0.15;0.15;;;;;;;;;;5122951;27;20052;-75
2023/10/09 13:54:49;;;;;;;1.42;0.40;;;;;;;;;;5120461;27;20063;-76
2023/10/09 13:57:16;;;;;;;0.25;0.17;;;;;;;;;;5120591;27;20048;-78
2023/10/09 13:59:51;;;;;;;0.95;0.50;;;;;;;;;;5121796;27;20051;-78
2023/10/09 14:02:21;;;;;;;0.38;0.38;;;;;;;;;;5122357;27;20124;-80
2023/10/09 14:04:47;;;;;;;0.55;0.47;;;;;;;;;;5122793;27;20510;-76
2023/10/09 14:07:17;;;;;;;0.30;0.30;;;;;;;;;;5121537;27;20059;-78
2023/10/09 14:12:11;;;;;;;0.45;0.35;;;;;;;;;;5121836;27;20058;-75
2023/10/09 14:14:40;;;;;;;0.13;0.13;;;;;;;;;;5119119;27;20086;-76
2023/10/09 14:17:13;;;;;;;0.20;0.20;;;;;;;;;;5121348;27;20072;-78
2023/10/09 14:19:49;;;;;;;0.22;0.22;;;;;;;;;;5118916;27;20169;-75
2023/10/09 14:22:16;;;;;;;0.10;0.10;;;;;;;;;;5119636;27;20543;-75
2023/10/09 14:24:46;;;;;;;0.30;0.30;;;;;;;;;;5119455;27;20132;-75
2023/10/09 14:27:18;;;;;;;0.30;0.30;;;;;;;;;;5127311;27;20048;-76
2023/10/09 14:29:48;;;;;;;0.45;0.40;;;;;;;;;;5122041;27;20056;-75
2023/10/09 14:32:14;;;;;;;0.50;0.40;;;;;;;;;;5118540;27;20117;-76
2023/10/09 14:34:51;;;;;;;0.40;0.30;;;;;;;;;;5126006;27;20051;-76
2023/10/09 14:37:19;;;;;;;0.40;0.40;;;;;;;;;;5121525;27;20504;-75
2023/10/09 14:39:48;;;;;;;0.10;0.10;;;;;;;;;;5122045;27;20417;-79
2023/10/09 14:42:15;;;;;;;0.20;0.20;;;;;;;;;;5124103;27;20234;-76
2023/10/09 14:44:44;;;;;;;0.15;0.15;;;;;;;;;;5121501;27;20059;-79
2023/10/09 14:47:14;;;;;;;0.45;0.45;;;;;;;;;;5124582;27;20101;-75
2023/10/09 14:49:43;;;;;;;0.55;0.30;;;;;;;;;;5126528;27;20059;-79
2023/10/09 14:52:10;;;;;;;0.45;0.35;;;;;;;;;;5126846;27;20052;-75
2023/10/09 14:54:38;;;;;;;0.10;0.10;;;;;;;;;;5116487;27;20506;-80
2023/10/09 14:57:05;;;;;;;1.35;0.80;;;;;;;;;;5119143;27;20082;-80
2023/10/09 14:59:33;;;;;;;0.88;0.55;;;;;;;;;;5125366;27;20051;-76
2023/10/09 15:01:59;;;;;;;0.20;0.20;;;;;;;;;;5119606;27;20085;-77
2023/10/09 15:04:26;;;;;;;0.20;0.20;;;;;;;;;;5117920;27;20048;-75
2023/10/09 15:06:52;;;;;;;0.28;0.28;;;;;;;;;;5124126;27;20059;-76
2023/10/09 15:09:22;;;;;;;0.22;0.22;;;;;;;;;;5128763;27;20914;-76
2023/10/09 15:11:49;;;;;;;0.20;0.20;;;;;;;;;;5125028;27;20048;-77
2023/10/09 15:14:18;;;;;;;1.13;0.70;;;;;;;;;;5123743;27;20060;-79
2023/10/09 15:16:45;;;;;;;0.20;0.20;;;;;;;;;;5122241;27;20542;-78
2023/10/09 15:19:13;;;;;;;0.73;0.43;;;;;;;;;;5122335;27;20058;-76
2023/10/09 15:21:45;;;;;;;0.60;0.40;;;;;;;;;;5123177;27;20052;-76
2023/10/09 15:24:21;;;;;;;0.38;0.30;;;;;;;;;;5119836;27;20047;-76
2023/10/09 15:26:53;;;;;;;0.20;0.20;;;;;;;;;;5122135;27;20140;-79
2023/10/09 15:29:27;;;;;;;0.40;0.40;;;;;;;;;;5111413;27;20052;-79
2023/10/09 15:32:14;;;;;;;0.30;0.30;;;;;;;;;;5121675;27;20047;-77
2023/10/09 15:34:41;;;;;;;0.52;0.47;;;;;;;;;;5113517;27;20103;-78
2023/10/09 15:37:07;;;;;;;0.20;0.20;;;;;;;;;;5122770;27;20528;-76
2023/10/09 15:39:34;;;;;;;0.35;0.35;;;;;;;;;;5122602;27;20514;-77
2023/10/09 15:42:06;;;;;;;0.40;0.40;;;;;;;;;;5123797;27;20067;-77
2023/10/09 15:44:36;;;;;;;1.00;0.47;;;;;;;;;;5116456;27;20079;-77
2023/10/09 15:47:03;;;;;;;0.17;0.17;;;;;;;;;;5124381;27;20131;-76
2023/10/09 15:49:30;;;;;;;0.20;0.20;;;;;;;;;;5118437;27;20591;-77
2023/10/09 15:51:58;;;;;;;0.20;0.20;;;;;;;;;;5123703;27;20051;-77
2023/10/09 15:54:25;;;;;;;0.20;0.20;;;;;;;;;;5119424;27;20110;-77
2023/10/09 15:56:54;;;;;;;0.38;0.20;;;;;;;;;;5121785;27;20054;-77
2023/10/09 15:59:38;;;;;;;0.30;0.30;;;;;;;;;;5125044;27;20100;-77
2023/10/09 16:02:05;;;;;;;0.80;0.52;;;;;;;;;;5118728;27;20056;-77
2023/10/09 16:04:34;;;;;;;0.20;0.20;;;;;;;;;;5122907;27;20052;-77
2023/10/09 16:07:01;;;;;;;0.20;0.20;;;;;;;;;;5123505;27;20120;-77
2023/10/09 16:09:29;;;;;;;0.10;0.10;;;;;;;;;;5124605;27;20051;-77
2023/10/09 16:11:56;;;;;;;1.20;0.60;;;;;;;;;;5120460;27;20106;-77
2023/10/09 16:14:23;;;;;;;0.55;0.52;;;;;;;;;;5123712;27;20079;-77
2023/10/09 16:16:50;;;;;;;0.30;0.20;;;;;;;;;;5127104;27;20051;-76
2023/10/09 16:19:17;;;;;;;0.20;0.20;;;;;;;;;;5116255;27;20139;-77
2023/10/09 16:21:44;;;;;;;1.88;0.25;;;;;;;;;;5123281;27;20055;-77
2023/10/09 16:24:10;;;;;;;0.17;0.17;;;;;;;;;;5122592;27;20051;-77
2023/10/09 16:26:41;;;;;;;0.22;0.20;;;;;;;;;;5125383;27;20134;-77
2023/10/09 16:29:09;;;;;;;0.20;0.20;;;;;;;;;;5126921;27;20052;-78
2023/10/09 16:31:37;;;;;;;1.45;0.65;;;;;;;;;;5126156;27;20043;-77
2023/10/09 16:34:07;;;;;;;0.25;0.20;;;;;;;;;;5123771;27;20051;-77
2023/10/09 16:36:35;;;;;;;0.20;0.20;;;;;;;;;;5118940;27;20085;-78
2023/10/09 16:39:04;;;;;;;0.30;0.30;;;;;;;;;;5125419;27;20051;-77
2023/10/09 16:41:37;;;;;;;0.20;0.20;;;;;;;;;;5126527;27;20051;-77
2023/10/09 16:44:09;;;;;;;0.32;0.20;;;;;;;;;;5124321;27;20055;-77
2023/10/09 16:46:39;;;;;;;1.27;1.17;;;;;;;;;;5124042;27;20606;-78
2023/10/09 16:49:06;;;;;;;0.10;0.10;;;;;;;;;;5122933;27;20450;-77
2023/10/09 16:51:32;;;;;;;0.10;0.10;;;;;;;;;;5125033;27;20047;-77
2023/10/09 16:53:59;;;;;;;0.32;0.20;;;;;;;;;;5118195;27;20080;-77
2023/10/09 16:56:31;;;;;;;0.15;0.15;;;;;;;;;;5126455;27;20544;-77
2023/10/09 16:58:57;;;;;;;0.70;0.50;;;;;;;;;;5114636;27;20056;-76
2023/10/09 17:01:27;;;;;;;0.25;0.25;;;;;;;;;;5126787;27;21001;-77
2023/10/09 17:03:57;;;;;;;0.20;0.20;;;;;;;;;;5125131;27;20083;-76
2023/10/09 17:06:28;;;;;;;0.30;0.30;;;;;;;;;;5123199;27;20402;-77
2023/10/09 17:08:56;;;;;;;0.57;0.30;;;;;;;;;;5122646;27;20071;-77
2023/10/09 17:11:24;;;;;;;0.20;0.20;;;;;;;;;;5121332;27;20052;-77
2023/10/09 17:13:54;;;;;;;0.40;0.28;;;;;;;;;;5123166;27;20701;-77
2023/10/09 17:16:23;;;;;;;0.55;0.50;;;;;;;;;;5125160;27;20056;-77
2023/10/09 17:18:54;;;;;;;0.20;0.20;;;;;;;;;;5126688;27;20136;-77
2023/10/09 17:21:23;;;;;;;0.55;0.52;;;;;;;;;;5125655;27;20083;-77
2023/10/09 17:23:50;;;;;;;0.17;0.17;;;;;;;;;;5124489;27;20059;-77
2023/10/09 17:26:22;;;;;;;0.10;0.10;;;;;;;;;;5124761;27;20055;-77
2023/10/09 17:28:52;;;;;;;0.17;0.17;;;;;;;;;;5123399;27;20051;-77
2023/10/09 17:31:25;;;;;;;0.40;0.38;;;;;;;;;;5123143;27;20058;-77
2023/10/09 17:33:55;;;;;;;0.17;0.13;;;;;;;;;;5128113;27;20058;-77
2023/10/09 17:36:22;;;;;;;0.20;0.20;;;;;;;;;;5117742;27;20204;-77
2023/10/09 17:38:51;;;;;;;0.10;0.10;;;;;;;;;;5126964;27;20055;-77
2023/10/09 17:41:19;;;;;;;0.13;0.13;;;;;;;;;;5126888;27;20079;-77
2023/10/09 17:43:47;;;;;;;0.45;0.35;;;;;;;;;;5131251;27;20056;-77
2023/10/09 17:46:13;;;;;;;0.32;0.20;;;;;;;;;;5131631;27;20052;-77
2023/10/09 17:48:41;;;;;;;0.13;0.13;;;;;;;;;;5129363;27;21186;-77
2023/10/09 17:51:10;;;;;;;0.10;0.10;;;;;;;;;;5126923;27;20109;-77
2023/10/09 17:53:40;;;;;;;0.20;0.20;;;;;;;;;;5127275;27;20577;-77
2023/10/09 17:56:10;;;;;;;0.13;0.13;;;;;;;;;;5127149;27;20052;-77
2023/10/09 17:58:37;;;;;;;0.20;0.20;;;;;;;;;;5130630;27;20052;-77
2023/10/09 18:01:08;;;;;;;0.82;0.35;;;;;;;;;;5128932;27;20101;-77
2023/10/09 18:03:37;;;;;;;0.17;0.17;;;;;;;;;;5129451;27;20133;-77